sensor_id;sensor_type;location;lat;lon;timestamp;pressure;altitude;pressure_sealevel;temperature;humidity
63927;BME280;50103;47.960;21.712;2022-10-16T05:01:24;101201.00;;;9.52;92.89
63927;BME280;50103;47.960;21.712;2022-10-16T05:03:49;101205.69;;;9.51;92.69
63927;BME280;50103;47.960;21.712;2022-10-16T05:06:15;101208.81;;;9.52;92.91
63927;BME280;50103;47.960;21.712;2022-10-16T05:08:40;101212.52;;;9.51;93.20
63927;BME280;50103;47.960;21.712;2022-10-16T05:11:05;101219.12;;;9.51;93.65
63927;BME280;50103;47.960;21.712;2022-10-16T05:13:31;101220.55;;;9.50;93.38
63927;BME280;50103;47.960;21.712;2022-10-16T05:15:56;101220.64;;;9.49;93.36
63927;BME280;50103;47.960;21.712;2022-10-16T05:18:22;101225.16;;;9.47;93.29
63927;BME280;50103;47.960;21.712;2022-10-16T05:20:48;101226.78;;;9.46;93.47
63927;BME280;50103;47.960;21.712;2022-10-16T05:23:13;101233.91;;;9.45;93.63
63927;BME280;50103;47.960;21.712;2022-10-16T05:25:38;101237.48;;;9.45;93.62
63927;BME280;50103;47.960;21.712;2022-10-16T05:28:04;101239.27;;;9.44;93.86
63927;BME280;50103;47.960;21.712;2022-10-16T05:30:29;101238.41;;;9.44;93.60
63927;BME280;50103;47.960;21.712;2022-10-16T05:32:55;101238.80;;;9.43;93.95
63927;BME280;50103;47.960;21.712;2022-10-16T05:35:21;101244.51;;;9.42;93.86
63927;BME280;50103;47.960;21.712;2022-10-16T05:37:47;101247.35;;;9.42;93.90
63927;BME280;50103;47.960;21.712;2022-10-16T05:40:13;101251.97;;;9.42;93.86
63927;BME280;50103;47.960;21.712;2022-10-16T05:42:39;101255.17;;;9.41;93.97
63927;BME280;50103;47.960;21.712;2022-10-16T05:45:06;101260.84;;;9.41;94.23
63927;BME280;50103;47.960;21.712;2022-10-16T05:47:32;101262.06;;;9.41;94.24
63927;BME280;50103;47.960;21.712;2022-10-16T05:49:57;101262.41;;;9.42;94.13
63927;BME280;50103;47.960;21.712;2022-10-16T05:52:23;101262.90;;;9.42;94.23
63927;BME280;50103;47.960;21.712;2022-10-16T05:54:48;101266.63;;;9.42;94.34
63927;BME280;50103;47.960;21.712;2022-10-16T05:57:14;101271.70;;;9.43;94.46
63927;BME280;50103;47.960;21.712;2022-10-16T05:59:39;101273.07;;;9.43;94.40
63927;BME280;50103;47.960;21.712;2022-10-16T06:02:05;101275.13;;;9.45;94.67
63927;BME280;50103;47.960;21.712;2022-10-16T06:04:30;101278.40;;;9.46;94.60
63927;BME280;50103;47.960;21.712;2022-10-16T06:06:58;101278.17;;;9.47;94.67
63927;BME280;50103;47.960;21.712;2022-10-16T06:09:25;101283.41;;;9.49;94.72
63927;BME280;50103;47.960;21.712;2022-10-16T06:11:51;101285.48;;;9.50;94.46
63927;BME280;50103;47.960;21.712;2022-10-16T06:14:16;101291.81;;;9.50;94.53
63927;BME280;50103;47.960;21.712;2022-10-16T06:16:42;101297.55;;;9.52;94.82
63927;BME280;50103;47.960;21.712;2022-10-16T06:19:07;101299.73;;;9.54;94.82
63927;BME280;50103;47.960;21.712;2022-10-16T06:21:34;101303.70;;;9.56;94.68
63927;BME280;50103;47.960;21.712;2022-10-16T06:24:01;101305.13;;;9.58;95.02
63927;BME280;50103;47.960;21.712;2022-10-16T06:26:29;101309.02;;;9.61;95.11
63927;BME280;50103;47.960;21.712;2022-10-16T06:28:56;101315.73;;;9.65;94.82
63927;BME280;50103;47.960;21.712;2022-10-16T06:31:23;101318.21;;;9.68;95.08
63927;BME280;50103;47.960;21.712;2022-10-16T06:33:53;101323.66;;;9.71;95.01
63927;BME280;50103;47.960;21.712;2022-10-16T06:36:19;101329.10;;;9.75;94.97
63927;BME280;50103;47.960;21.712;2022-10-16T06:38:45;101333.51;;;9.78;94.91
63927;BME280;50103;47.960;21.712;2022-10-16T06:41:13;101338.23;;;9.82;94.77
63927;BME280;50103;47.960;21.712;2022-10-16T06:43:39;101348.38;;;9.88;94.88
63927;BME280;50103;47.960;21.712;2022-10-16T06:46:06;101350.56;;;9.92;95.10
63927;BME280;50103;47.960;21.712;2022-10-16T06:48:34;101349.23;;;9.97;95.14
63927;BME280;50103;47.960;21.712;2022-10-16T06:51:05;101351.94;;;10.02;95.45
63927;BME280;50103;47.960;21.712;2022-10-16T06:53:34;101353.73;;;10.07;95.73
63927;BME280;50103;47.960;21.712;2022-10-16T06:56:07;101354.88;;;10.12;95.70
63927;BME280;50103;47.960;21.712;2022-10-16T06:58:33;101358.65;;;10.17;95.54
63927;BME280;50103;47.960;21.712;2022-10-16T07:00:59;101361.10;;;10.22;95.55
63927;BME280;50103;47.960;21.712;2022-10-16T07:03:24;101365.96;;;10.26;95.76
63927;BME280;50103;47.960;21.712;2022-10-16T07:05:50;101367.66;;;10.30;95.47
63927;BME280;50103;47.960;21.712;2022-10-16T07:08:15;101373.27;;;10.35;95.60
63927;BME280;50103;47.960;21.712;2022-10-16T07:10:41;101376.93;;;10.38;95.77
63927;BME280;50103;47.960;21.712;2022-10-16T07:13:06;101379.39;;;10.41;95.95
63927;BME280;50103;47.960;21.712;2022-10-16T07:15:33;101380.98;;;10.44;96.04
63927;BME280;50103;47.960;21.712;2022-10-16T07:17:59;101379.04;;;10.47;95.74
63927;BME280;50103;47.960;21.712;2022-10-16T07:20:24;101379.16;;;10.51;96.07
63927;BME280;50103;47.960;21.712;2022-10-16T07:22:50;101375.39;;;10.55;96.00
63927;BME280;50103;47.960;21.712;2022-10-16T07:25:16;101374.02;;;10.60;95.97
63927;BME280;50103;47.960;21.712;2022-10-16T07:27:41;101374.27;;;10.65;95.83
63927;BME280;50103;47.960;21.712;2022-10-16T07:30:07;101373.15;;;10.69;95.90
63927;BME280;50103;47.960;21.712;2022-10-16T07:32:33;101373.55;;;10.74;95.76
63927;BME280;50103;47.960;21.712;2022-10-16T07:34:58;101377.04;;;10.77;95.59
63927;BME280;50103;47.960;21.712;2022-10-16T07:37:24;101372.89;;;10.81;95.36
63927;BME280;50103;47.960;21.712;2022-10-16T07:39:49;101371.55;;;10.86;95.41
63927;BME280;50103;47.960;21.712;2022-10-16T07:42:14;101375.81;;;10.92;95.36
63927;BME280;50103;47.960;21.712;2022-10-16T07:44:40;101376.64;;;10.96;95.42
63927;BME280;50103;47.960;21.712;2022-10-16T07:47:06;101379.77;;;11.00;95.35
63927;BME280;50103;47.960;21.712;2022-10-16T07:49:32;101378.92;;;11.04;95.23
63927;BME280;50103;47.960;21.712;2022-10-16T07:51:57;101381.08;;;11.09;95.06
63927;BME280;50103;47.960;21.712;2022-10-16T07:54:24;101385.55;;;11.14;94.86
63927;BME280;50103;47.960;21.712;2022-10-16T07:56:49;101386.52;;;11.19;94.64
63927;BME280;50103;47.960;21.712;2022-10-16T07:59:14;101386.50;;;11.25;94.69
63927;BME280;50103;47.960;21.712;2022-10-16T08:01:40;101382.35;;;11.32;94.47
63927;BME280;50103;47.960;21.712;2022-10-16T08:04:08;101384.61;;;11.38;94.12
63927;BME280;50103;47.960;21.712;2022-10-16T08:06:38;101390.20;;;11.45;94.08
63927;BME280;50103;47.960;21.712;2022-10-16T08:09:05;101383.63;;;11.51;93.81
63927;BME280;50103;47.960;21.712;2022-10-16T08:11:32;101386.58;;;11.57;93.58
63927;BME280;50103;47.960;21.712;2022-10-16T08:13:57;101388.52;;;11.63;93.41
63927;BME280;50103;47.960;21.712;2022-10-16T08:16:23;101388.84;;;11.69;93.20
63927;BME280;50103;47.960;21.712;2022-10-16T08:18:48;101394.64;;;11.75;92.90
63927;BME280;50103;47.960;21.712;2022-10-16T08:21:18;101400.13;;;11.81;92.67
63927;BME280;50103;47.960;21.712;2022-10-16T08:23:44;101399.71;;;11.87;92.47
63927;BME280;50103;47.960;21.712;2022-10-16T08:26:10;101404.41;;;11.95;92.09
63927;BME280;50103;47.960;21.712;2022-10-16T08:28:37;101404.65;;;12.02;91.70
63927;BME280;50103;47.960;21.712;2022-10-16T08:31:07;101403.77;;;12.10;91.38
63927;BME280;50103;47.960;21.712;2022-10-16T08:33:33;101409.06;;;12.18;91.05
63927;BME280;50103;47.960;21.712;2022-10-16T08:36:01;101408.61;;;12.28;90.94
63927;BME280;50103;47.960;21.712;2022-10-16T08:38:26;101409.48;;;12.36;90.52
63927;BME280;50103;47.960;21.712;2022-10-16T08:40:57;101409.67;;;12.43;90.31
63927;BME280;50103;47.960;21.712;2022-10-16T08:43:55;101409.01;;;12.51;89.85
63927;BME280;50103;47.960;21.712;2022-10-16T08:48:56;101407.62;;;12.68;89.27
63927;BME280;50103;47.960;21.712;2022-10-16T08:51:36;101405.58;;;12.77;88.73
63927;BME280;50103;47.960;21.712;2022-10-16T08:56:27;101406.59;;;12.96;87.76
63927;BME280;50103;47.960;21.712;2022-10-16T08:58:54;101405.34;;;13.04;87.06
63927;BME280;50103;47.960;21.712;2022-10-16T09:01:22;101405.55;;;13.11;86.60
63927;BME280;50103;47.960;21.712;2022-10-16T09:06:45;101404.67;;;13.26;86.02
63927;BME280;50103;47.960;21.712;2022-10-16T09:12:30;101408.19;;;13.42;85.15
63927;BME280;50103;47.960;21.712;2022-10-16T09:17:48;101414.30;;;13.61;83.47
63927;BME280;50103;47.960;21.712;2022-10-16T09:20:30;101420.23;;;13.70;82.29
63927;BME280;50103;47.960;21.712;2022-10-16T09:23:10;101421.70;;;13.79;81.46
63927;BME280;50103;47.960;21.712;2022-10-16T09:25:39;101421.20;;;13.90;80.57
63927;BME280;50103;47.960;21.712;2022-10-16T09:28:07;101420.47;;;14.00;80.04
63927;BME280;50103;47.960;21.712;2022-10-16T09:30:34;101420.21;;;14.09;79.89
63927;BME280;50103;47.960;21.712;2022-10-16T09:33:00;101416.61;;;14.16;79.40
63927;BME280;50103;47.960;21.712;2022-10-16T09:35:48;101419.52;;;14.25;78.98
63927;BME280;50103;47.960;21.712;2022-10-16T09:40:47;101420.45;;;14.48;78.95
63927;BME280;50103;47.960;21.712;2022-10-16T09:43:35;101417.46;;;14.57;79.51
63927;BME280;50103;47.960;21.712;2022-10-16T09:46:07;101421.34;;;14.67;78.91
63927;BME280;50103;47.960;21.712;2022-10-16T09:48:39;101417.70;;;14.75;77.27
63927;BME280;50103;47.960;21.712;2022-10-16T09:51:28;101420.16;;;14.85;75.70
63927;BME280;50103;47.960;21.712;2022-10-16T09:54:00;101417.89;;;14.97;76.14
63927;BME280;50103;47.960;21.712;2022-10-16T09:56:31;101412.39;;;15.11;75.75
63927;BME280;50103;47.960;21.712;2022-10-16T09:59:15;101413.29;;;15.24;74.13
63927;BME280;50103;47.960;21.712;2022-10-16T10:01:44;101419.98;;;15.36;72.75
63927;BME280;50103;47.960;21.712;2022-10-16T10:04:11;101417.41;;;15.49;72.19
63927;BME280;50103;47.960;21.712;2022-10-16T10:06:46;101420.13;;;15.60;72.35
63927;BME280;50103;47.960;21.712;2022-10-16T10:09:26;101414.63;;;15.75;72.33
63927;BME280;50103;47.960;21.712;2022-10-16T10:11:57;101413.39;;;16.03;71.80
63927;BME280;50103;47.960;21.712;2022-10-16T10:14:37;101413.80;;;16.55;71.10
63927;BME280;50103;47.960;21.712;2022-10-16T10:22:32;101409.82;;;18.01;68.23
63927;BME280;50103;47.960;21.712;2022-10-16T10:30:21;101399.05;;;19.12;64.64
63927;BME280;50103;47.960;21.712;2022-10-16T10:35:17;101405.46;;;19.47;62.29
63927;BME280;50103;47.960;21.712;2022-10-16T10:45:52;101395.98;;;19.57;57.21
63927;BME280;50103;47.960;21.712;2022-10-16T10:51:36;101394.31;;;19.65;56.30
63927;BME280;50103;47.960;21.712;2022-10-16T10:57:02;101402.73;;;19.78;54.92
63927;BME280;50103;47.960;21.712;2022-10-16T10:59:40;101398.79;;;19.86;55.87
63927;BME280;50103;47.960;21.712;2022-10-16T11:07:52;101383.67;;;20.47;54.10
63927;BME280;50103;47.960;21.712;2022-10-16T11:10:22;101383.11;;;20.67;51.81
63927;BME280;50103;47.960;21.712;2022-10-16T11:12:57;101384.43;;;20.80;51.59
63927;BME280;50103;47.960;21.712;2022-10-16T11:15:30;101387.20;;;21.02;52.38
63927;BME280;50103;47.960;21.712;2022-10-16T11:18:16;101377.66;;;21.29;52.51
63927;BME280;50103;47.960;21.712;2022-10-16T11:20:58;101380.79;;;21.49;50.69
63927;BME280;50103;47.960;21.712;2022-10-16T11:23:31;101376.60;;;21.55;49.60
63927;BME280;50103;47.960;21.712;2022-10-16T11:26:04;101371.27;;;21.69;49.60
63927;BME280;50103;47.960;21.712;2022-10-16T11:28:39;101372.11;;;21.93;48.45
63927;BME280;50103;47.960;21.712;2022-10-16T11:34:03;101367.33;;;22.22;48.30
63927;BME280;50103;47.960;21.712;2022-10-16T11:36:57;101367.50;;;22.37;47.94
63927;BME280;50103;47.960;21.712;2022-10-16T11:39:30;101364.65;;;22.60;47.29
63927;BME280;50103;47.960;21.712;2022-10-16T11:42:03;101363.55;;;22.90;46.21
63927;BME280;50103;47.960;21.712;2022-10-16T11:47:11;101364.48;;;22.98;45.84
63927;BME280;50103;47.960;21.712;2022-10-16T11:49:41;101364.11;;;22.98;45.65
63927;BME280;50103;47.960;21.712;2022-10-16T11:52:20;101365.09;;;22.99;45.18
63927;BME280;50103;47.960;21.712;2022-10-16T11:54:59;101357.52;;;23.11;45.19
63927;BME280;50103;47.960;21.712;2022-10-16T11:57:31;101356.02;;;23.42;44.68
63927;BME280;50103;47.960;21.712;2022-10-16T12:00:20;101355.95;;;23.72;43.00
63927;BME280;50103;47.960;21.712;2022-10-16T12:03:08;101352.76;;;23.94;44.07
63927;BME280;50103;47.960;21.712;2022-10-16T12:08:26;101349.61;;;24.43;42.68
63927;BME280;50103;47.960;21.712;2022-10-16T12:10:52;101353.45;;;24.62;41.92
63927;BME280;50103;47.960;21.712;2022-10-16T12:13:37;101352.96;;;24.69;40.93
63927;BME280;50103;47.960;21.712;2022-10-16T12:18:44;101344.95;;;24.85;40.66
63927;BME280;50103;47.960;21.712;2022-10-16T12:21:12;101347.59;;;24.86;40.74
63927;BME280;50103;47.960;21.712;2022-10-16T12:23:51;101339.70;;;25.09;39.97
63927;BME280;50103;47.960;21.712;2022-10-16T12:26:37;101342.63;;;25.28;38.87
63927;BME280;50103;47.960;21.712;2022-10-16T12:31:52;101342.95;;;25.46;38.41
63927;BME280;50103;47.960;21.712;2022-10-16T12:34:41;101347.90;;;25.54;38.27
63927;BME280;50103;47.960;21.712;2022-10-16T12:37:14;101347.98;;;25.57;38.59
63927;BME280;50103;47.960;21.712;2022-10-16T12:39:45;101342.88;;;25.69;38.44
63927;BME280;50103;47.960;21.712;2022-10-16T12:44:54;101353.73;;;26.00;36.99
63927;BME280;50103;47.960;21.712;2022-10-16T12:47:50;101354.91;;;26.04;36.37
63927;BME280;50103;47.960;21.712;2022-10-16T12:50:25;101358.87;;;26.14;36.90
63927;BME280;50103;47.960;21.712;2022-10-16T12:52:51;101354.98;;;26.30;35.91
63927;BME280;50103;47.960;21.712;2022-10-16T12:55:19;101358.09;;;26.39;35.55
63927;BME280;50103;47.960;21.712;2022-10-16T13:03:27;101361.73;;;26.66;35.61
63927;BME280;50103;47.960;21.712;2022-10-16T13:28:34;101357.64;;;27.88;33.82
63927;BME280;50103;47.960;21.712;2022-10-16T13:31:01;101357.94;;;28.08;32.64
63927;BME280;50103;47.960;21.712;2022-10-16T13:33:37;101359.35;;;28.11;32.52
63927;BME280;50103;47.960;21.712;2022-10-16T13:36:04;101358.29;;;28.25;32.56
63927;BME280;50103;47.960;21.712;2022-10-16T13:38:32;101354.39;;;28.19;32.48
63927;BME280;50103;47.960;21.712;2022-10-16T13:41:01;101353.08;;;28.09;32.57
63927;BME280;50103;47.960;21.712;2022-10-16T13:46:20;101358.29;;;27.60;32.78
63927;BME280;50103;47.960;21.712;2022-10-16T13:49:00;101363.36;;;27.14;33.14
63927;BME280;50103;47.960;21.712;2022-10-16T13:51:27;101362.81;;;26.74;33.91
63927;BME280;50103;47.960;21.712;2022-10-16T13:53:55;101362.38;;;26.45;33.71
63927;BME280;50103;47.960;21.712;2022-10-16T13:56:25;101364.50;;;26.13;34.01
63927;BME280;50103;47.960;21.712;2022-10-16T13:59:21;101366.77;;;25.82;34.07
63927;BME280;50103;47.960;21.712;2022-10-16T14:01:47;101369.42;;;25.42;34.79
63927;BME280;50103;47.960;21.712;2022-10-16T14:04:14;101373.01;;;25.14;34.96
63927;BME280;50103;47.960;21.712;2022-10-16T14:06:43;101376.40;;;24.90;35.61
63927;BME280;50103;47.960;21.712;2022-10-16T14:11:53;101373.41;;;24.54;36.25
63927;BME280;50103;47.960;21.712;2022-10-16T14:14:21;101372.95;;;24.30;36.97
63927;BME280;50103;47.960;21.712;2022-10-16T14:16:47;101371.55;;;24.10;37.02
63927;BME280;50103;47.960;21.712;2022-10-16T14:19:24;101366.54;;;23.99;36.88
63927;BME280;50103;47.960;21.712;2022-10-16T14:21:51;101366.42;;;23.89;37.18
63927;BME280;50103;47.960;21.712;2022-10-16T14:26:55;101373.64;;;23.69;37.78
63927;BME280;50103;47.960;21.712;2022-10-16T14:29:22;101375.08;;;23.55;38.00
63927;BME280;50103;47.960;21.712;2022-10-16T14:32:22;101373.57;;;23.38;37.87
63927;BME280;50103;47.960;21.712;2022-10-16T14:34:53;101379.09;;;23.20;38.35
63927;BME280;50103;47.960;21.712;2022-10-16T14:37:25;101380.88;;;23.13;38.40
63927;BME280;50103;47.960;21.712;2022-10-16T14:39:53;101383.96;;;23.06;38.76
63927;BME280;50103;47.960;21.712;2022-10-16T14:42:21;101386.09;;;22.96;39.17
63927;BME280;50103;47.960;21.712;2022-10-16T14:44:50;101388.54;;;22.91;39.23
63927;BME280;50103;47.960;21.712;2022-10-16T14:47:22;101387.61;;;22.85;39.51
63927;BME280;50103;47.960;21.712;2022-10-16T14:49:51;101388.95;;;22.74;40.06
63927;BME280;50103;47.960;21.712;2022-10-16T14:52:18;101393.01;;;22.62;40.54
63927;BME280;50103;47.960;21.712;2022-10-16T14:54:48;101392.54;;;22.54;40.60
63927;BME280;50103;47.960;21.712;2022-10-16T14:57:18;101393.61;;;22.46;40.74
63927;BME280;50103;47.960;21.712;2022-10-16T14:59:45;101389.60;;;22.41;40.49
63927;BME280;50103;47.960;21.712;2022-10-16T15:04:46;101391.20;;;22.30;40.43
63927;BME280;50103;47.960;21.712;2022-10-16T15:07:11;101391.10;;;22.22;40.40
63927;BME280;50103;47.960;21.712;2022-10-16T15:09:37;101387.70;;;22.14;40.50
63927;BME280;50103;47.960;21.712;2022-10-16T15:12:02;101388.63;;;22.06;40.67
63927;BME280;50103;47.960;21.712;2022-10-16T15:14:28;101387.67;;;21.97;41.03
63927;BME280;50103;47.960;21.712;2022-10-16T15:16:53;101389.04;;;21.90;41.28
63927;BME280;50103;47.960;21.712;2022-10-16T15:19:19;101386.58;;;21.79;41.67
63927;BME280;50103;47.960;21.712;2022-10-16T15:21:44;101390.23;;;21.69;42.26
63927;BME280;50103;47.960;21.712;2022-10-16T15:24:14;101384.98;;;21.57;42.73
63927;BME280;50103;47.960;21.712;2022-10-16T15:26:40;101385.24;;;21.46;42.98
63927;BME280;50103;47.960;21.712;2022-10-16T15:29:06;101386.55;;;21.36;43.35
63927;BME280;50103;47.960;21.712;2022-10-16T15:31:32;101384.30;;;21.25;43.71
63927;BME280;50103;47.960;21.712;2022-10-16T15:33:58;101389.76;;;21.15;43.87
63927;BME280;50103;47.960;21.712;2022-10-16T15:36:31;101393.55;;;21.05;44.26
63927;BME280;50103;47.960;21.712;2022-10-16T15:38:59;101397.86;;;20.95;44.74
63927;BME280;50103;47.960;21.712;2022-10-16T15:41:24;101398.90;;;20.83;44.91
63927;BME280;50103;47.960;21.712;2022-10-16T15:43:50;101403.11;;;20.72;45.39
63927;BME280;50103;47.960;21.712;2022-10-16T15:46:21;101398.98;;;20.65;45.64
63927;BME280;50103;47.960;21.712;2022-10-16T15:48:48;101399.97;;;20.58;45.62
63927;BME280;50103;47.960;21.712;2022-10-16T15:51:13;101405.08;;;20.53;45.86
63927;BME280;50103;47.960;21.712;2022-10-16T15:53:39;101404.84;;;20.46;46.05
63927;BME280;50103;47.960;21.712;2022-10-16T15:56:06;101406.23;;;20.38;46.39
63927;BME280;50103;47.960;21.712;2022-10-16T15:58:32;101411.42;;;20.27;46.81
63927;BME280;50103;47.960;21.712;2022-10-16T16:00:59;101415.10;;;20.17;47.07
63927;BME280;50103;47.960;21.712;2022-10-16T16:03:29;101416.57;;;20.06;47.31
63927;BME280;50103;47.960;21.712;2022-10-16T16:05:55;101417.30;;;19.96;47.55
63927;BME280;50103;47.960;21.712;2022-10-16T16:08:22;101420.92;;;19.88;47.91
63927;BME280;50103;47.960;21.712;2022-10-16T16:10:59;101424.31;;;19.79;48.28
63927;BME280;50103;47.960;21.712;2022-10-16T16:13:25;101428.00;;;19.69;48.53
63927;BME280;50103;47.960;21.712;2022-10-16T16:15:50;101431.74;;;19.60;48.97
63927;BME280;50103;47.960;21.712;2022-10-16T16:18:16;101435.14;;;19.53;49.18
63927;BME280;50103;47.960;21.712;2022-10-16T16:20:41;101437.05;;;19.46;49.50
63927;BME280;50103;47.960;21.712;2022-10-16T16:23:07;101443.04;;;19.42;49.74
63927;BME280;50103;47.960;21.712;2022-10-16T16:25:32;101446.41;;;19.35;49.93
63927;BME280;50103;47.960;21.712;2022-10-16T16:27:58;101452.23;;;19.27;50.24
63927;BME280;50103;47.960;21.712;2022-10-16T16:30:23;101454.04;;;19.17;50.51
63927;BME280;50103;47.960;21.712;2022-10-16T16:32:50;101455.79;;;19.08;50.84
63927;BME280;50103;47.960;21.712;2022-10-16T16:35:15;101456.23;;;19.00;51.15
63927;BME280;50103;47.960;21.712;2022-10-16T16:37:41;101458.76;;;18.92;51.45
63927;BME280;50103;47.960;21.712;2022-10-16T16:40:06;101456.70;;;18.85;51.74
63927;BME280;50103;47.960;21.712;2022-10-16T16:42:32;101456.66;;;18.78;52.16
63927;BME280;50103;47.960;21.712;2022-10-16T16:44:57;101462.31;;;18.71;52.42
63927;BME280;50103;47.960;21.712;2022-10-16T16:47:22;101463.80;;;18.65;52.68
63927;BME280;50103;47.960;21.712;2022-10-16T16:49:48;101469.39;;;18.59;52.80
63927;BME280;50103;47.960;21.712;2022-10-16T16:52:14;101475.89;;;18.50;53.11
63927;BME280;50103;47.960;21.712;2022-10-16T16:54:39;101479.20;;;18.41;53.50
63927;BME280;50103;47.960;21.712;2022-10-16T16:57:05;101479.03;;;18.36;53.91
63927;BME280;50103;47.960;21.712;2022-10-16T16:59:30;101485.94;;;18.31;54.14
63927;BME280;50103;47.960;21.712;2022-10-16T17:02:01;101489.86;;;18.23;54.43
63927;BME280;50103;47.960;21.712;2022-10-16T17:04:27;101494.96;;;18.10;54.60
63927;BME280;50103;47.960;21.712;2022-10-16T17:06:53;101496.74;;;17.99;55.06
63927;BME280;50103;47.960;21.712;2022-10-16T17:09:20;101497.59;;;17.89;55.52
63927;BME280;50103;47.960;21.712;2022-10-16T17:11:46;101498.04;;;17.80;55.93
63927;BME280;50103;47.960;21.712;2022-10-16T17:14:14;101501.05;;;17.72;56.46
63927;BME280;50103;47.960;21.712;2022-10-16T17:16:40;101510.42;;;17.66;56.77
63927;BME280;50103;47.960;21.712;2022-10-16T17:19:14;101517.57;;;17.60;57.14
63927;BME280;50103;47.960;21.712;2022-10-16T17:21:41;101521.86;;;17.54;57.66
63927;BME280;50103;47.960;21.712;2022-10-16T17:24:07;101523.38;;;17.46;57.96
63927;BME280;50103;47.960;21.712;2022-10-16T17:26:33;101523.73;;;17.40;58.26
63927;BME280;50103;47.960;21.712;2022-10-16T17:29:03;101526.84;;;17.33;58.61
63927;BME280;50103;47.960;21.712;2022-10-16T17:31:32;101526.91;;;17.26;59.12
63927;BME280;50103;47.960;21.712;2022-10-16T17:33:59;101524.98;;;17.17;59.25
63927;BME280;50103;47.960;21.712;2022-10-16T17:36:25;101524.39;;;17.10;59.72
63927;BME280;50103;47.960;21.712;2022-10-16T17:38:54;101523.55;;;17.03;60.14
63927;BME280;50103;47.960;21.712;2022-10-16T17:41:22;101521.87;;;16.98;60.50
63927;BME280;50103;47.960;21.712;2022-10-16T17:43:49;101524.70;;;16.91;60.90
63927;BME280;50103;47.960;21.712;2022-10-16T17:46:16;101528.64;;;16.88;61.36
63927;BME280;50103;47.960;21.712;2022-10-16T17:48:45;101530.70;;;16.84;61.67
63927;BME280;50103;47.960;21.712;2022-10-16T17:51:12;101526.73;;;16.80;61.96
63927;BME280;50103;47.960;21.712;2022-10-16T17:53:39;101525.73;;;16.75;62.24
63927;BME280;50103;47.960;21.712;2022-10-16T17:56:09;101524.73;;;16.70;62.51
63927;BME280;50103;47.960;21.712;2022-10-16T17:58:35;101524.15;;;16.64;62.84
63927;BME280;50103;47.960;21.712;2022-10-16T18:01:02;101528.08;;;16.59;63.09
63927;BME280;50103;47.960;21.712;2022-10-16T18:03:35;101529.43;;;16.54;63.33
63927;BME280;50103;47.960;21.712;2022-10-16T18:06:01;101530.61;;;16.48;63.59
63927;BME280;50103;47.960;21.712;2022-10-16T18:08:28;101534.88;;;16.42;63.83
63927;BME280;50103;47.960;21.712;2022-10-16T18:10:54;101533.73;;;16.34;64.32
63927;BME280;50103;47.960;21.712;2022-10-16T18:13:22;101534.92;;;16.28;64.65
63927;BME280;50103;47.960;21.712;2022-10-16T18:16:07;101535.69;;;16.24;64.87
63927;BME280;50103;47.960;21.712;2022-10-16T18:18:35;101538.09;;;16.18;65.18
63927;BME280;50103;47.960;21.712;2022-10-16T18:21:14;101537.38;;;16.14;65.52
63927;BME280;50103;47.960;21.712;2022-10-16T18:23:47;101536.69;;;16.07;65.46
63927;BME280;50103;47.960;21.712;2022-10-16T18:26:14;101538.50;;;16.00;65.92
63927;BME280;50103;47.960;21.712;2022-10-16T18:28:44;101540.33;;;15.93;66.24
63927;BME280;50103;47.960;21.712;2022-10-16T18:31:12;101546.15;;;15.85;66.26
63927;BME280;50103;47.960;21.712;2022-10-16T18:33:43;101549.21;;;15.80;66.84
63927;BME280;50103;47.960;21.712;2022-10-16T18:36:25;101552.57;;;15.73;67.07
63927;BME280;50103;47.960;21.712;2022-10-16T18:38:53;101556.40;;;15.68;67.34
63927;BME280;50103;47.960;21.712;2022-10-16T18:41:19;101559.46;;;15.61;67.01
63927;BME280;50103;47.960;21.712;2022-10-16T18:43:44;101558.17;;;15.55;67.69
63927;BME280;50103;47.960;21.712;2022-10-16T18:46:13;101562.01;;;15.49;68.18
63927;BME280;50103;47.960;21.712;2022-10-16T18:48:40;101565.91;;;15.42;68.56
63927;BME280;50103;47.960;21.712;2022-10-16T18:51:11;101567.09;;;15.36;68.91
63927;BME280;50103;47.960;21.712;2022-10-16T18:53:40;101571.41;;;15.31;69.24
63927;BME280;50103;47.960;21.712;2022-10-16T18:56:06;101573.83;;;15.27;69.39
63927;BME280;50103;47.960;21.712;2022-10-16T18:58:35;101579.72;;;15.23;69.82
